createdAt,value
2023-03-21T00:01:53.554Z,100.00
2023-03-21T00:04:24.811Z,100.00
2023-03-21T00:06:53.786Z,100.00
2023-03-21T00:09:22.299Z,100.00
2023-03-21T00:11:50.708Z,100.00
2023-03-21T00:14:20.291Z,100.00
2023-03-21T00:16:54.027Z,100.00
2023-03-21T00:19:24.962Z,100.00
2023-03-21T00:22:11.015Z,100.00
2023-03-21T00:24:39.555Z,100.00
2023-03-21T00:27:34.612Z,100.00
2023-03-21T00:29:56.775Z,100.00
2023-03-21T00:32:25.756Z,100.00
2023-03-21T00:35:11.770Z,100.00
2023-03-21T00:37:43.178Z,100.00
2023-03-21T00:40:25.477Z,100.00
2023-03-21T00:42:56.197Z,100.00
2023-03-21T00:45:24.819Z,100.00
2023-03-21T00:47:53.381Z,100.00
2023-03-21T00:50:21.823Z,100.00
2023-03-21T00:52:50.430Z,100.00
2023-03-21T00:55:21.080Z,100.00
2023-03-21T01:00:21.447Z,100.00
2023-03-21T01:03:04.520Z,100.00
2023-03-21T01:06:01.947Z,100.00
2023-03-21T01:08:44.504Z,100.00
2023-03-21T01:11:23.782Z,100.00
2023-03-21T01:13:57.819Z,100.00
2023-03-21T01:25:19.372Z,100.00
2023-03-21T01:27:50.054Z,100.00
2023-03-21T01:30:21.643Z,100.00
2023-03-21T01:32:52.837Z,100.00
2023-03-21T01:35:21.235Z,100.00
2023-03-21T01:37:50.225Z,100.00
2023-03-21T01:40:24.905Z,100.00
2023-03-21T01:42:53.641Z,100.00
2023-03-21T01:45:59.769Z,100.00
2023-03-21T01:48:29.632Z,100.00
2023-03-21T01:50:59.213Z,100.00
2023-03-21T01:53:33.696Z,100.00
2023-03-21T01:56:28.107Z,100.00
2023-03-21T01:59:05.427Z,100.00
2023-03-21T02:01:34.911Z,100.00
2023-03-21T02:04:05.095Z,100.00
2023-03-21T02:06:59.092Z,100.00
2023-03-21T02:09:33.598Z,100.00
2023-03-21T02:12:02.389Z,100.00
2023-03-21T02:14:34.066Z,100.00
2023-03-21T02:17:14.407Z,100.00
2023-03-21T02:20:11.805Z,100.00
2023-03-21T02:23:27.052Z,100.00
2023-03-21T02:26:28.466Z,100.00
2023-03-21T02:29:52.547Z,100.00
2023-03-21T02:32:59.490Z,100.00
2023-03-21T02:36:11.974Z,100.00
2023-03-21T02:39:29.261Z,100.00
2023-03-21T02:42:16.934Z,100.00
2023-03-21T02:44:58.954Z,100.00
2023-03-21T02:47:51.229Z,100.00
2023-03-21T02:50:51.489Z,100.00
2023-03-21T02:53:25.131Z,100.00
2023-03-21T02:55:54.762Z,100.00
2023-03-21T02:58:27.306Z,100.00
2023-03-21T03:00:56.773Z,100.00
2023-03-21T03:03:33.909Z,100.00
2023-03-21T03:06:13.505Z,100.00
2023-03-21T03:09:02.986Z,100.00
2023-03-21T03:11:38.122Z,100.00
2023-03-21T03:14:41.942Z,100.00
2023-03-21T03:17:48.943Z,100.00
2023-03-21T03:20:45.198Z,100.00
2023-03-21T03:23:49.174Z,100.00
2023-03-21T03:26:30.766Z,100.00
2023-03-21T03:38:14.455Z,100.00
2023-03-21T03:40:50.390Z,100.00
2023-03-21T03:43:30.072Z,100.00
2023-03-21T03:46:10.678Z,100.00
2023-03-21T03:48:55.415Z,100.00
2023-03-21T03:52:02.146Z,100.00
2023-03-21T03:54:38.937Z,100.00
2023-03-21T03:57:08.379Z,100.00
2023-03-21T03:59:38.831Z,100.00
2023-03-21T04:02:08.048Z,100.00
2023-03-21T04:04:37.140Z,100.00
2023-03-21T04:07:06.389Z,100.00
2023-03-21T04:09:44.214Z,100.00
2023-03-21T04:12:32.687Z,100.00
2023-03-21T04:15:09.945Z,100.00
2023-03-21T04:17:36.844Z,100.00
2023-03-21T04:20:12.031Z,100.00
2023-03-21T04:22:43.625Z,100.00
2023-03-21T04:25:19.017Z,100.00
2023-03-21T04:27:52.830Z,100.00
2023-03-21T04:30:24.904Z,100.00
2023-03-21T04:32:57.028Z,100.00
2023-03-21T04:35:25.720Z,100.00
2023-03-21T04:37:54.988Z,100.00
2023-03-21T04:40:25.211Z,100.00
2023-03-21T04:42:53.646Z,100.00
2023-03-21T04:45:22.040Z,100.00
2023-03-21T04:47:50.376Z,100.00
2023-03-21T04:50:18.890Z,100.00
2023-03-21T04:52:47.313Z,100.00
2023-03-21T04:55:16.145Z,100.00
2023-03-21T04:57:44.420Z,100.00
2023-03-21T05:00:14.657Z,100.00
2023-03-21T05:02:42.947Z,100.00
2023-03-21T05:05:13.581Z,100.00
2023-03-21T05:07:42.266Z,100.00
2023-03-21T05:10:12.499Z,100.00
2023-03-21T05:12:41.322Z,100.00
2023-03-21T05:15:10.062Z,100.00
2023-03-21T05:17:38.363Z,100.00
2023-03-21T05:20:09.728Z,100.00
2023-03-21T05:22:45.738Z,100.00
2023-03-21T05:25:14.550Z,100.00
2023-03-21T05:27:45.215Z,100.00
2023-03-21T05:30:18.200Z,100.00
2023-03-21T05:32:47.108Z,100.00
2023-03-21T05:35:15.634Z,100.00
2023-03-21T05:37:43.938Z,100.00
2023-03-21T05:40:13.014Z,100.00
2023-03-21T05:42:41.515Z,100.00
2023-03-21T05:45:10.718Z,100.00
2023-03-21T05:47:39.109Z,100.00
2023-03-21T05:50:08.134Z,100.00
2023-03-21T05:52:37.145Z,100.00
2023-03-21T05:55:06.384Z,100.00
2023-03-21T05:57:39.598Z,100.00
2023-03-21T06:00:09.671Z,100.00
2023-03-21T06:02:38.585Z,100.00
2023-03-21T06:05:30.914Z,100.00
2023-03-21T06:07:59.231Z,100.00
2023-03-21T06:10:27.821Z,100.00
2023-03-21T06:12:56.862Z,100.00
2023-03-21T06:15:26.689Z,100.00
2023-03-21T06:17:55.012Z,100.00
2023-03-21T06:20:23.373Z,100.00
2023-03-21T06:22:51.749Z,100.00
2023-03-21T06:25:20.204Z,100.00
2023-03-21T06:27:48.551Z,100.00
2023-03-21T06:30:18.393Z,100.00
2023-03-21T06:32:46.792Z,100.00
2023-03-21T06:35:15.421Z,100.00
2023-03-21T06:37:45.487Z,100.00
2023-03-21T06:40:13.933Z,100.00
2023-03-21T06:42:42.296Z,100.00
2023-03-21T06:45:11.037Z,100.00
2023-03-21T06:47:39.437Z,100.00
2023-03-21T06:50:09.477Z,100.00
2023-03-21T06:52:37.852Z,100.00
2023-03-21T06:55:06.830Z,100.00
2023-03-21T06:57:35.442Z,100.00
2023-03-21T07:00:05.533Z,100.00
2023-03-21T07:02:34.408Z,100.00
2023-03-21T07:05:03.504Z,100.00
2023-03-21T07:07:32.021Z,100.00
2023-03-21T07:10:25.622Z,100.00
2023-03-21T07:12:54.129Z,100.00
2023-03-21T07:15:22.517Z,100.00
2023-03-21T07:17:50.883Z,100.00
2023-03-21T07:20:19.582Z,100.00
2023-03-21T07:22:47.910Z,100.00
2023-03-21T07:25:18.144Z,100.00
2023-03-21T07:27:46.590Z,100.00
2023-03-21T07:30:15.981Z,100.00
2023-03-21T07:32:47.760Z,100.00
2023-03-21T07:35:17.759Z,100.00
2023-03-21T07:37:46.342Z,100.00
2023-03-21T07:40:15.030Z,100.00
2023-03-21T07:42:43.480Z,100.00
2023-03-21T07:45:21.197Z,100.00
2023-03-21T07:47:50.171Z,100.00
2023-03-21T07:50:19.348Z,100.00
2023-03-21T07:52:48.237Z,100.00
2023-03-21T07:55:17.488Z,100.00
2023-03-21T07:57:49.398Z,100.00
2023-03-21T08:00:23.104Z,100.00
2023-03-21T08:02:58.516Z,100.00
2023-03-21T08:05:35.525Z,100.00
2023-03-21T08:08:05.826Z,100.00
2023-03-21T08:10:35.035Z,100.00
2023-03-21T08:13:04.372Z,100.00
2023-03-21T08:15:32.676Z,100.00
2023-03-21T08:18:01.244Z,100.00
2023-03-21T08:20:29.658Z,100.00
2023-03-21T08:23:09.770Z,100.00
2023-03-21T08:25:39.107Z,100.00
2023-03-21T08:28:07.598Z,100.00
2023-03-21T08:30:37.900Z,100.00
2023-03-21T08:33:06.461Z,100.00
2023-03-21T08:35:35.571Z,100.00
2023-03-21T08:38:04.832Z,100.00
2023-03-21T08:40:33.913Z,100.00
2023-03-21T08:43:03.167Z,100.00
2023-03-21T08:45:31.612Z,100.00
2023-03-21T08:48:00.090Z,100.00
2023-03-21T08:50:29.712Z,100.00
2023-03-21T08:52:58.161Z,100.00
2023-03-21T08:55:26.628Z,100.00
2023-03-21T08:57:55.036Z,100.00
2023-03-21T09:00:23.785Z,100.00
2023-03-21T09:02:54.413Z,100.00
2023-03-21T09:05:26.544Z,100.00
2023-03-21T09:07:54.960Z,100.00
2023-03-21T09:10:24.317Z,100.00
2023-03-21T09:12:54.898Z,100.00
2023-03-21T09:15:28.889Z,100.00
2023-03-21T09:18:13.042Z,100.00
2023-03-21T09:26:45.225Z,100.00
2023-03-21T09:29:15.952Z,100.00
2023-03-21T09:31:45.009Z,100.00
2023-03-21T09:34:17.010Z,100.00
2023-03-21T09:36:48.532Z,100.00
2023-03-21T09:39:17.362Z,100.00
2023-03-21T09:42:31.645Z,100.00
2023-03-21T09:45:14.302Z,100.00
2023-03-21T09:47:54.225Z,100.00
2023-03-21T09:50:35.520Z,100.00
2023-03-21T09:53:23.682Z,100.00
2023-03-21T09:55:54.124Z,100.00
2023-03-21T09:58:46.285Z,100.00
2023-03-21T10:01:41.770Z,100.00
2023-03-21T10:04:20.694Z,100.00
2023-03-21T10:07:04.104Z,99.91
2023-03-21T10:09:33.291Z,99.22
2023-03-21T10:12:14.843Z,98.60
2023-03-21T10:14:58.180Z,98.44
2023-03-21T10:17:43.138Z,98.67
2023-03-21T10:20:21.707Z,98.77
2023-03-21T10:22:54.205Z,98.58
2023-03-21T10:25:38.438Z,98.48
2023-03-21T10:28:15.676Z,98.12
2023-03-21T10:30:56.894Z,98.08
2023-03-21T10:33:32.558Z,98.32
2023-03-21T10:36:31.355Z,98.14
2023-03-21T10:39:12.724Z,98.42
2023-03-21T10:41:41.294Z,98.43
2023-03-21T10:44:18.419Z,98.23
2023-03-21T10:46:56.876Z,97.81
2023-03-21T10:49:26.805Z,97.33
2023-03-21T10:52:03.944Z,97.35
2023-03-21T10:54:35.704Z,97.06
2023-03-21T10:57:23.277Z,96.27
2023-03-21T10:59:59.875Z,95.91
2023-03-21T11:02:38.015Z,95.91
2023-03-21T11:05:33.653Z,95.24
2023-03-21T11:08:18.724Z,94.93
2023-03-21T11:11:06.335Z,94.69
2023-03-21T11:13:37.873Z,93.57
2023-03-21T11:16:27.344Z,92.65
2023-03-21T11:19:02.374Z,92.62
2023-03-21T11:21:37.682Z,92.93
2023-03-21T11:24:13.326Z,93.02
2023-03-21T11:26:45.209Z,92.32
2023-03-21T11:29:35.011Z,91.64
2023-03-21T11:32:19.933Z,91.62
2023-03-21T11:35:06.018Z,89.46
2023-03-21T11:37:47.845Z,88.24
2023-03-21T11:40:32.369Z,86.59
2023-03-21T11:43:22.274Z,85.86
2023-03-21T11:46:01.146Z,86.22
2023-03-21T11:48:29.834Z,85.68
2023-03-21T11:51:17.195Z,85.67
2023-03-21T11:54:16.266Z,85.74
2023-03-21T11:56:49.454Z,85.45
2023-03-21T11:59:43.018Z,85.01
2023-03-21T12:02:45.435Z,84.85
2023-03-21T12:05:21.772Z,85.06
2023-03-21T12:08:42.475Z,84.19
2023-03-21T12:11:32.951Z,84.74
2023-03-21T12:14:32.741Z,84.58
2023-03-21T12:17:39.510Z,84.37
2023-03-21T12:20:20.653Z,84.12
2023-03-21T12:23:16.204Z,83.20
2023-03-21T12:26:03.012Z,82.59
2023-03-21T12:29:12.365Z,83.14
2023-03-21T12:31:49.585Z,82.54
2023-03-21T12:35:07.739Z,82.77
2023-03-21T12:38:08.272Z,82.40
2023-03-21T12:41:11.648Z,81.87
2023-03-21T12:44:16.240Z,81.41
2023-03-21T12:46:59.475Z,81.26
2023-03-21T12:49:42.929Z,80.79
2023-03-21T12:52:39.622Z,80.47
2023-03-21T12:55:27.149Z,79.86
2023-03-21T12:58:07.518Z,79.93
2023-03-21T13:01:01.451Z,79.82
2023-03-21T13:05:50.322Z,77.78
2023-03-21T13:08:39.333Z,77.08
2023-03-21T13:11:12.708Z,76.46
2023-03-21T13:14:09.188Z,76.72
2023-03-21T13:16:41.687Z,76.70
2023-03-21T13:19:37.218Z,76.13
2023-03-21T13:22:39.472Z,75.99
2023-03-21T13:25:20.690Z,76.51
2023-03-21T13:28:03.047Z,76.56
2023-03-21T13:30:32.580Z,76.18
2023-03-21T13:33:21.812Z,76.01
2023-03-21T13:36:07.297Z,76.12
2023-03-21T13:38:40.377Z,75.94
2023-03-21T13:41:17.374Z,76.14
2023-03-21T13:43:53.754Z,76.47
2023-03-21T13:46:24.948Z,76.23
2023-03-21T13:48:58.891Z,75.85
2023-03-21T13:51:36.855Z,75.38
2023-03-21T13:54:08.150Z,75.30
2023-03-21T13:56:48.577Z,75.06
2023-03-21T13:59:39.171Z,75.07
2023-03-21T14:02:13.517Z,74.71
2023-03-21T14:05:00.250Z,74.35
2023-03-21T14:07:42.594Z,74.06
2023-03-21T14:10:45.770Z,74.09
2023-03-21T14:13:21.359Z,73.59
2023-03-21T14:16:02.467Z,73.26
2023-03-21T14:18:53.336Z,73.07
2023-03-21T14:21:26.792Z,72.97
2023-03-21T14:24:02.570Z,73.20
2023-03-21T14:26:38.429Z,73.04
2023-03-21T14:29:24.729Z,73.62
2023-03-21T14:31:56.613Z,73.86
2023-03-21T14:34:27.269Z,73.56
2023-03-21T14:36:59.306Z,73.95
2023-03-21T14:40:00.466Z,73.90
2023-03-21T14:42:36.018Z,73.98
2023-03-21T14:45:31.015Z,74.17
2023-03-21T14:48:17.016Z,74.41
2023-03-21T14:51:26.189Z,74.21
2023-03-21T14:53:54.619Z,74.28
2023-03-21T14:56:25.640Z,74.55
2023-03-21T14:58:54.662Z,74.30
2023-03-21T15:01:32.265Z,74.26
2023-03-21T15:04:05.512Z,74.54
2023-03-21T15:06:35.736Z,74.77
2023-03-21T15:09:06.455Z,74.74
2023-03-21T15:11:39.473Z,74.80
2023-03-21T15:14:12.591Z,74.99
2023-03-21T15:16:41.396Z,74.95
2023-03-21T15:19:17.880Z,75.25
2023-03-21T15:21:52.857Z,75.67
2023-03-21T15:24:29.473Z,75.75
2023-03-21T15:27:07.905Z,75.54
2023-03-21T15:29:37.063Z,75.37
2023-03-21T15:32:13.798Z,75.54
2023-03-21T15:34:42.307Z,75.72
2023-03-21T15:37:22.355Z,75.92
2023-03-21T15:39:52.440Z,75.89
2023-03-21T15:42:40.864Z,75.80
2023-03-21T15:45:25.703Z,76.07
2023-03-21T15:48:06.556Z,76.12
2023-03-21T15:50:42.518Z,76.32
2023-03-21T15:53:17.794Z,76.55
2023-03-21T15:55:53.257Z,76.68
2023-03-21T15:58:28.165Z,76.71
2023-03-21T16:01:05.275Z,76.89
2023-03-21T16:03:39.791Z,77.14
2023-03-21T16:06:11.364Z,77.24
2023-03-21T16:08:46.158Z,77.25
2023-03-21T16:11:18.446Z,77.42
2023-03-21T16:13:46.898Z,77.43
2023-03-21T16:16:29.597Z,77.62
2023-03-21T16:19:00.937Z,77.78
2023-03-21T16:21:33.767Z,77.87
2023-03-21T16:24:02.273Z,78.04
2023-03-21T16:26:34.487Z,77.98
2023-03-21T16:29:04.333Z,78.22
2023-03-21T16:31:35.041Z,78.44
2023-03-21T16:34:05.213Z,78.59
2023-03-21T16:36:37.743Z,78.69
2023-03-21T16:39:18.420Z,78.83
2023-03-21T16:41:47.530Z,78.88
2023-03-21T16:44:16.398Z,79.15
2023-03-21T16:46:47.236Z,79.34
2023-03-21T16:49:33.658Z,79.41
2023-03-21T16:52:02.231Z,79.72
2023-03-21T16:54:30.858Z,80.14
2023-03-21T16:56:59.567Z,80.27
2023-03-21T16:59:27.926Z,80.44
2023-03-21T17:01:56.576Z,80.69
2023-03-21T17:04:25.238Z,81.11
2023-03-21T17:06:54.756Z,81.18
2023-03-21T17:09:29.158Z,81.53
2023-03-21T17:11:57.433Z,81.75
2023-03-21T17:14:25.859Z,82.02
2023-03-21T17:16:55.132Z,82.31
2023-03-21T17:19:26.433Z,82.66
2023-03-21T17:21:55.348Z,82.92
2023-03-21T17:24:26.133Z,83.36
2023-03-21T17:26:54.856Z,83.62
2023-03-21T17:29:23.305Z,84.21
2023-03-21T17:31:51.817Z,84.46
2023-03-21T17:34:20.579Z,84.45
2023-03-21T17:36:49.365Z,84.76
2023-03-21T17:39:28.666Z,84.78
2023-03-21T17:41:57.164Z,85.20
2023-03-21T17:44:25.745Z,85.28
2023-03-21T17:46:54.131Z,85.56
2023-03-21T17:49:22.995Z,85.66
2023-03-21T17:51:52.225Z,86.01
2023-03-21T17:54:20.952Z,86.04
2023-03-21T17:56:49.415Z,86.35
2023-03-21T17:59:17.758Z,86.36
2023-03-21T18:01:47.407Z,86.77
2023-03-21T18:04:16.081Z,87.03
2023-03-21T18:06:44.959Z,87.23
2023-03-21T18:09:13.400Z,87.62
2023-03-21T18:11:41.793Z,87.85
2023-03-21T18:14:19.488Z,88.07
2023-03-21T18:16:54.295Z,88.30
2023-03-21T18:19:23.116Z,88.56
2023-03-21T18:21:51.429Z,88.64
2023-03-21T18:24:19.796Z,88.82
2023-03-21T18:26:48.483Z,89.14
2023-03-21T18:30:15.913Z,89.40
2023-03-21T18:32:08.725Z,89.55
2023-03-21T18:34:39.959Z,89.80
2023-03-21T18:37:09.337Z,89.92
2023-03-21T18:39:38.601Z,90.05
2023-03-21T18:42:10.843Z,90.37
2023-03-21T18:44:46.866Z,90.50
2023-03-21T18:47:15.654Z,90.71
2023-03-21T18:52:32.979Z,91.16
2023-03-21T18:55:01.411Z,91.48
2023-03-21T18:57:38.904Z,91.66
2023-03-21T19:00:17.014Z,91.82
2023-03-21T19:02:53.689Z,91.94
2023-03-21T19:05:27.416Z,91.95
2023-03-21T19:07:55.868Z,92.07
2023-03-21T19:10:24.372Z,92.19
2023-03-21T19:12:54.823Z,92.44
2023-03-21T19:15:24.486Z,92.48
2023-03-21T19:20:46.498Z,92.63
2023-03-21T19:23:16.284Z,92.87
2023-03-21T19:25:45.518Z,92.98
2023-03-21T19:28:13.904Z,93.04
2023-03-21T19:30:49.837Z,93.21
2023-03-21T19:33:20.092Z,93.33
2023-03-21T19:35:58.924Z,93.41
2023-03-21T19:38:34.631Z,93.46
2023-03-21T19:41:03.998Z,93.42
2023-03-21T19:43:33.580Z,93.52
2023-03-21T19:46:02.989Z,93.57
2023-03-21T19:48:32.060Z,93.64
2023-03-21T19:51:26.789Z,93.66
2023-03-21T19:53:51.237Z,93.81
2023-03-21T19:56:23.179Z,93.80
2023-03-21T19:58:53.073Z,93.87
2023-03-21T20:01:21.838Z,93.97
2023-03-21T20:03:50.618Z,93.96
2023-03-21T20:06:19.262Z,94.00
2023-03-21T20:09:27.646Z,94.13
2023-03-21T20:11:36.212Z,94.09
2023-03-21T20:14:05.417Z,94.27
2023-03-21T20:16:35.790Z,94.33
2023-03-21T20:19:05.999Z,94.33
2023-03-21T20:21:45.213Z,94.38
2023-03-21T20:24:16.846Z,94.50
2023-03-21T20:26:45.901Z,94.68
2023-03-21T20:32:02.541Z,94.69
2023-03-21T20:34:31.242Z,94.58
2023-03-21T20:36:59.728Z,94.56
2023-03-21T20:39:29.435Z,94.50
2023-03-21T20:41:59.573Z,94.27
2023-03-21T20:44:48.427Z,94.12
2023-03-21T20:47:17.437Z,93.84
2023-03-21T20:49:46.117Z,93.67
2023-03-21T20:52:52.162Z,93.58
2023-03-21T20:55:06.936Z,93.61
2023-03-21T20:57:38.620Z,93.66
2023-03-21T21:00:15.217Z,93.48
2023-03-21T21:02:46.386Z,93.52
2023-03-21T21:05:28.323Z,93.56
2023-03-21T21:07:58.982Z,93.59
2023-03-21T21:10:27.751Z,93.61
2023-03-21T21:12:56.936Z,93.64
2023-03-21T21:15:25.353Z,93.81
2023-03-21T21:18:06.621Z,93.79
2023-03-21T21:20:37.546Z,93.92
2023-03-21T21:23:06.703Z,94.05
2023-03-21T21:25:35.168Z,94.22
2023-03-21T21:28:09.179Z,94.29
2023-03-21T21:30:41.485Z,94.49
2023-03-21T21:33:10.127Z,94.49
2023-03-21T21:35:39.414Z,94.67
2023-03-21T21:38:08.006Z,94.85
2023-03-21T21:40:36.547Z,94.95
2023-03-21T21:43:05.081Z,95.25
2023-03-21T21:45:33.536Z,95.50
2023-03-21T21:48:02.113Z,95.87
2023-03-21T21:50:30.650Z,96.12
2023-03-21T21:53:03.637Z,96.51
2023-03-21T21:55:36.289Z,96.82
2023-03-21T21:58:05.527Z,96.98
2023-03-21T22:00:35.474Z,97.20
2023-03-21T22:03:04.319Z,97.41
2023-03-21T22:05:32.741Z,97.48
2023-03-21T22:08:01.191Z,97.68
2023-03-21T22:10:32.513Z,97.72
2023-03-21T22:13:00.825Z,97.89
2023-03-21T22:15:29.197Z,97.89
2023-03-21T22:17:57.532Z,97.88
2023-03-21T22:20:25.844Z,98.01
2023-03-21T22:22:56.679Z,98.05
2023-03-21T22:25:25.174Z,98.18
2023-03-21T22:27:53.524Z,98.22
2023-03-21T22:30:22.031Z,98.36
2023-03-21T22:33:06.212Z,98.35
2023-03-21T22:35:37.466Z,98.34
2023-03-21T22:38:05.887Z,98.26
2023-03-21T22:40:34.340Z,98.38
2023-03-21T22:43:02.890Z,98.44
2023-03-21T22:45:32.980Z,98.36
2023-03-21T22:48:02.127Z,98.43
2023-03-21T22:50:30.731Z,98.49
2023-03-21T22:52:59.049Z,98.51
2023-03-21T22:55:27.567Z,98.55
2023-03-21T22:57:55.932Z,98.49
2023-03-21T23:00:25.128Z,98.58
2023-03-21T23:02:53.444Z,98.63
2023-03-21T23:05:21.760Z,98.73
2023-03-21T23:07:50.049Z,98.71
2023-03-21T23:10:19.166Z,98.91
2023-03-21T23:12:47.597Z,98.98
2023-03-21T23:15:15.972Z,99.00
2023-03-21T23:17:44.485Z,99.00
2023-03-21T23:20:12.911Z,99.08
2023-03-21T23:22:41.651Z,99.11
2023-03-21T23:25:10.035Z,99.14
2023-03-21T23:27:38.390Z,99.19
2023-03-21T23:30:07.665Z,99.09
2023-03-21T23:32:36.273Z,99.29
2023-03-21T23:35:05.150Z,99.28
2023-03-21T23:37:33.498Z,99.31
2023-03-21T23:40:02.235Z,99.39
2023-03-21T23:42:30.720Z,99.42
2023-03-21T23:44:59.056Z,99.44
2023-03-21T23:47:27.448Z,99.55
2023-03-21T23:49:55.755Z,99.58
2023-03-21T23:52:24.055Z,99.65
2023-03-21T23:54:52.437Z,99.55
2023-03-21T23:57:21.881Z,99.63
2023-03-21T23:59:53.477Z,99.72
